createdAt,value
2018-12-04T00:02:17.542Z,225.47
2018-12-04T00:04:43.769Z,285.07
2018-12-04T00:07:09.937Z,280.97
2018-12-04T00:09:36.095Z,254.07
2018-12-04T00:12:02.290Z,221.23
2018-12-04T00:14:28.457Z,213.20
2018-12-04T00:16:54.594Z,204.00
2018-12-04T00:19:20.802Z,215.00
2018-12-04T00:21:46.968Z,224.87
2018-12-04T00:24:13.125Z,212.50
2018-12-04T00:26:39.329Z,310.17
2018-12-04T00:29:05.485Z,180.23
2018-12-04T00:31:31.657Z,196.33
2018-12-04T00:33:57.839Z,229.87
2018-12-04T00:36:23.997Z,200.10
2018-12-04T00:38:50.154Z,189.70
2018-12-04T00:41:16.359Z,257.93
2018-12-04T00:43:42.541Z,215.30
2018-12-04T00:46:08.697Z,448.60
2018-12-04T00:48:34.897Z,267.60
2018-12-04T00:51:01.108Z,263.57
2018-12-04T00:53:27.337Z,182.03
2018-12-04T00:55:53.549Z,201.63
2018-12-04T00:58:19.744Z,193.83
2018-12-04T01:00:45.909Z,254.33
2018-12-04T01:03:12.104Z,271.13
2018-12-04T01:05:38.274Z,226.10
2018-12-04T01:08:04.435Z,262.00
2018-12-04T01:10:30.629Z,273.30
2018-12-04T01:12:56.781Z,336.13
2018-12-04T01:15:22.941Z,282.93
2018-12-04T01:17:49.122Z,159.80
2018-12-04T01:20:15.288Z,169.33
2018-12-04T01:22:41.459Z,174.30
2018-12-04T01:25:07.660Z,143.40
2018-12-04T01:27:33.821Z,201.03
2018-12-04T01:29:59.985Z,198.53
2018-12-04T01:32:26.177Z,189.13
2018-12-04T01:34:52.346Z,213.37
2018-12-04T01:37:18.505Z,222.53
2018-12-04T01:39:44.702Z,196.10
2018-12-04T01:42:10.862Z,308.53
2018-12-04T01:47:13.363Z,232.47
2018-12-04T01:49:39.530Z,260.37
2018-12-04T01:52:05.673Z,268.07
2018-12-04T01:54:31.853Z,202.87
2018-12-04T01:56:58.049Z,295.93
2018-12-04T01:59:24.201Z,330.77
2018-12-04T02:01:50.408Z,259.43
2018-12-04T02:04:16.577Z,208.77
2018-12-04T02:06:42.753Z,261.10
2018-12-04T02:09:09.025Z,225.43
2018-12-04T02:11:35.188Z,143.70
2018-12-04T02:14:01.348Z,166.67
2018-12-04T02:16:27.544Z,163.53
2018-12-04T02:18:53.694Z,203.57
2018-12-04T02:21:19.873Z,169.13
2018-12-04T02:23:46.062Z,281.40
2018-12-04T02:26:12.234Z,269.30
2018-12-04T02:28:40.189Z,238.20
2018-12-04T02:31:06.398Z,184.37
2018-12-04T02:33:32.550Z,115.07
2018-12-04T02:35:58.706Z,150.80
2018-12-04T02:38:24.889Z,230.60
2018-12-04T02:40:51.062Z,208.90
2018-12-04T02:43:17.227Z,274.40
2018-12-04T02:45:43.413Z,386.00
2018-12-04T02:48:09.571Z,231.30
2018-12-04T02:50:35.773Z,204.43
2018-12-04T02:53:02.093Z,249.87
2018-12-04T02:55:28.273Z,265.60
2018-12-04T02:57:54.425Z,153.50
2018-12-04T03:00:20.634Z,130.97
2018-12-04T03:02:46.780Z,125.93
2018-12-04T03:05:13.091Z,92.13
2018-12-04T03:07:39.278Z,86.00
2018-12-04T03:10:05.684Z,97.37
2018-12-04T03:12:31.847Z,100.47
2018-12-04T03:14:58.029Z,107.83
2018-12-04T03:17:24.265Z,122.20
2018-12-04T03:19:50.432Z,166.30
2018-12-04T03:22:16.609Z,119.07
2018-12-04T03:24:42.758Z,162.37
2018-12-04T03:27:08.898Z,118.87
2018-12-04T03:29:35.119Z,99.67
2018-12-04T03:32:01.424Z,136.20
2018-12-04T03:34:27.584Z,99.87
2018-12-04T03:36:53.765Z,85.50
2018-12-04T03:39:19.971Z,102.80
2018-12-04T03:41:46.130Z,97.93
2018-12-04T03:44:12.318Z,132.20
2018-12-04T03:46:38.463Z,106.97
2018-12-04T03:49:04.604Z,132.03
2018-12-04T03:51:30.820Z,190.87
2018-12-04T03:53:56.971Z,134.77
2018-12-04T03:56:23.126Z,181.53
2018-12-04T03:58:49.315Z,160.90
2018-12-04T04:01:15.489Z,154.93
2018-12-04T04:03:41.813Z,196.93
2018-12-04T04:06:08.009Z,170.50
2018-12-04T04:08:34.201Z,190.13
2018-12-04T04:11:00.348Z,189.43
2018-12-04T04:13:26.542Z,153.37
2018-12-04T04:15:52.710Z,222.13
2018-12-04T04:18:18.864Z,151.93
2018-12-04T04:20:45.058Z,127.77
2018-12-04T04:23:11.206Z,214.17
2018-12-04T04:25:37.490Z,124.93
2018-12-04T04:28:03.708Z,105.20
2018-12-04T04:30:29.877Z,109.27
2018-12-04T04:32:56.033Z,196.13
2018-12-04T04:35:22.219Z,138.57
2018-12-04T04:37:48.362Z,187.47
2018-12-04T04:40:14.523Z,149.97
2018-12-04T04:42:40.784Z,105.50
2018-12-04T04:45:07.025Z,136.57
2018-12-04T04:47:33.181Z,218.93
2018-12-04T04:49:59.403Z,212.93
2018-12-04T04:52:25.550Z,242.10
2018-12-04T04:54:51.709Z,229.23
2018-12-04T04:57:18.024Z,237.77
2018-12-04T04:59:44.185Z,207.87
2018-12-04T05:02:10.351Z,230.57
2018-12-04T05:04:36.575Z,308.30
2018-12-04T05:07:02.764Z,267.03
2018-12-04T05:09:28.945Z,217.97
2018-12-04T05:11:55.153Z,163.07
2018-12-04T05:14:21.294Z,178.43
2018-12-04T05:16:47.453Z,338.80
2018-12-04T05:19:13.679Z,170.23
2018-12-04T05:21:39.830Z,182.90
2018-12-04T05:24:05.994Z,260.50
2018-12-04T05:26:32.184Z,239.40
2018-12-04T05:28:58.340Z,164.30
2018-12-04T05:31:24.497Z,168.53
2018-12-04T05:33:50.693Z,223.10
2018-12-04T05:36:16.873Z,200.53
2018-12-04T05:38:43.028Z,244.20
2018-12-04T05:41:09.265Z,189.97
2018-12-04T05:43:35.422Z,197.37
2018-12-04T05:46:01.595Z,174.43
2018-12-04T05:48:27.781Z,217.13
2018-12-04T05:50:53.934Z,156.53
2018-12-04T05:53:29.423Z,202.03
2018-12-04T05:55:55.581Z,147.90
2018-12-04T05:58:21.750Z,157.90
2018-12-04T06:00:47.962Z,162.93
2018-12-04T06:03:14.139Z,136.20
2018-12-04T06:05:40.302Z,143.27
2018-12-04T06:08:06.490Z,164.33
2018-12-04T06:10:32.669Z,122.40
2018-12-04T06:12:58.837Z,157.93
2018-12-04T06:15:25.043Z,163.67
2018-12-04T06:17:51.218Z,409.90
2018-12-04T06:20:17.387Z,170.20
2018-12-04T06:22:43.605Z,155.87
2018-12-04T06:25:09.857Z,184.17
2018-12-04T06:27:36.033Z,236.97
2018-12-04T06:30:02.358Z,175.77
2018-12-04T06:32:28.513Z,154.47
2018-12-04T06:34:54.724Z,128.37
2018-12-04T06:37:20.913Z,119.47
2018-12-04T06:39:47.065Z,163.07
2018-12-04T06:42:13.238Z,170.10
2018-12-04T06:44:39.417Z,130.03
2018-12-04T06:47:05.556Z,158.00
2018-12-04T06:49:31.705Z,355.45
2018-12-04T06:51:57.897Z,169.83
2018-12-04T06:54:24.036Z,136.07
2018-12-04T06:56:50.169Z,172.97
2018-12-04T06:59:16.357Z,143.23
2018-12-04T07:01:42.518Z,114.47
2018-12-04T07:04:08.681Z,138.53
2018-12-04T07:06:34.883Z,120.03
2018-12-04T07:09:01.050Z,127.00
2018-12-04T07:11:27.206Z,112.43
2018-12-04T07:13:53.526Z,142.03
2018-12-04T07:16:19.690Z,134.77
2018-12-04T07:18:45.841Z,138.30
2018-12-04T07:21:12.029Z,124.37
2018-12-04T07:23:38.188Z,107.10
2018-12-04T07:26:04.354Z,63.07
2018-12-04T07:28:30.553Z,94.47
2018-12-04T07:30:56.722Z,81.80
2018-12-04T07:33:22.883Z,104.37
2018-12-04T07:35:49.104Z,73.47
2018-12-04T07:38:15.265Z,71.23
2018-12-04T07:40:41.400Z,74.03
2018-12-04T07:43:07.601Z,73.60
2018-12-04T07:45:33.761Z,87.83
2018-12-04T07:47:59.922Z,93.23
2018-12-04T07:50:26.113Z,93.97
2018-12-04T07:52:52.319Z,94.03
2018-12-04T07:55:18.592Z,86.37
2018-12-04T07:57:44.777Z,88.87
2018-12-04T08:00:10.978Z,87.97
2018-12-04T08:02:37.130Z,113.13
2018-12-04T08:05:04.477Z,112.80
2018-12-04T08:07:30.633Z,126.97
2018-12-04T08:09:56.837Z,127.57
2018-12-04T08:12:23.106Z,124.33
2018-12-04T08:14:49.292Z,116.17
2018-12-04T08:17:15.466Z,176.20
2018-12-04T08:19:41.641Z,164.10
2018-12-04T08:22:07.793Z,149.03
2018-12-04T08:24:34.588Z,255.07
2018-12-04T08:27:00.998Z,152.57
2018-12-04T08:29:27.165Z,198.53
2018-12-04T08:31:53.349Z,151.03
2018-12-04T08:34:19.529Z,160.57
2018-12-04T08:36:45.689Z,169.77
2018-12-04T08:39:13.217Z,174.10
2018-12-04T08:41:39.850Z,155.67
2018-12-04T08:44:06.004Z,161.10
2018-12-04T08:46:32.161Z,164.53
2018-12-04T08:48:58.382Z,160.77
2018-12-04T08:51:24.525Z,173.60
2018-12-04T08:53:50.686Z,162.77
2018-12-04T08:56:16.876Z,189.10
2018-12-04T08:58:43.020Z,189.13
2018-12-04T09:01:09.174Z,197.30
2018-12-04T09:03:35.373Z,191.43
2018-12-04T09:06:01.554Z,209.37
2018-12-04T09:08:27.706Z,209.30
2018-12-04T09:10:53.905Z,216.30
2018-12-04T09:13:20.213Z,203.00
2018-12-04T09:15:46.353Z,186.87
2018-12-04T09:18:12.568Z,217.93
2018-12-04T09:20:38.912Z,205.47
2018-12-04T09:23:05.141Z,233.10
2018-12-04T09:25:31.480Z,200.90
2018-12-04T09:27:57.769Z,273.77
2018-12-04T09:30:24.066Z,187.47
2018-12-04T09:32:50.273Z,275.13
2018-12-04T09:35:16.442Z,200.20
2018-12-04T09:37:42.630Z,186.40
2018-12-04T09:40:08.833Z,181.23
2018-12-04T09:42:35.954Z,188.43
2018-12-04T09:45:02.141Z,199.77
2018-12-04T09:47:28.323Z,195.60
2018-12-04T09:49:54.479Z,225.80
2018-12-04T09:52:20.630Z,196.77
2018-12-04T09:54:46.800Z,215.50
2018-12-04T09:57:12.962Z,193.73
2018-12-04T09:59:39.640Z,256.90
2018-12-04T10:02:06.106Z,219.90
2018-12-04T10:04:32.271Z,218.13
2018-12-04T10:06:58.417Z,169.33
2018-12-04T10:09:24.596Z,213.60
2018-12-04T10:11:50.775Z,155.83
2018-12-04T10:14:16.945Z,206.93
2018-12-04T10:16:43.125Z,488.93
2018-12-04T10:19:09.291Z,290.23
2018-12-04T10:21:35.453Z,168.97
2018-12-04T10:24:01.657Z,160.73
2018-12-04T10:26:27.885Z,193.97
2018-12-04T10:28:54.129Z,172.53
2018-12-04T10:31:20.354Z,124.53
2018-12-04T10:33:46.527Z,149.37
2018-12-04T10:36:12.717Z,158.60
2018-12-04T10:38:38.946Z,145.90
2018-12-04T10:41:05.155Z,163.10
2018-12-04T10:43:31.360Z,152.07
2018-12-04T10:45:57.597Z,130.27
2018-12-04T10:48:23.754Z,122.20
2018-12-04T10:50:49.901Z,280.97
2018-12-04T10:53:16.120Z,138.60
2018-12-04T10:55:42.342Z,139.73
2018-12-04T10:58:08.498Z,165.97
2018-12-04T11:00:35.817Z,156.50
2018-12-04T11:03:07.128Z,154.07
2018-12-04T11:05:33.354Z,157.13
2018-12-04T11:08:01.037Z,140.97
2018-12-04T11:10:27.213Z,183.10
2018-12-04T11:12:53.414Z,174.50
2018-12-04T11:15:19.616Z,168.70
2018-12-04T11:17:45.784Z,178.00
2018-12-04T11:20:12.085Z,156.33
2018-12-04T11:22:38.275Z,165.70
2018-12-04T11:25:05.985Z,184.70
2018-12-04T11:27:32.146Z,188.80
2018-12-04T11:29:58.346Z,189.07
2018-12-04T11:32:24.485Z,214.23
2018-12-04T11:34:51.366Z,203.60
2018-12-04T11:37:17.573Z,208.27
2018-12-04T11:39:43.714Z,196.53
2018-12-04T11:42:09.896Z,201.60
2018-12-04T11:44:36.094Z,211.47
2018-12-04T11:47:02.277Z,246.50
2018-12-04T11:49:28.445Z,233.13
2018-12-04T11:51:54.663Z,214.27
2018-12-04T11:54:20.834Z,227.87
2018-12-04T11:56:47.002Z,228.10
2018-12-04T11:59:13.193Z,210.00
2018-12-04T12:01:39.374Z,221.23
2018-12-04T12:04:05.546Z,227.43
2018-12-04T12:06:31.736Z,196.87
2018-12-04T12:08:57.877Z,211.93
2018-12-04T12:11:24.037Z,197.97
2018-12-04T12:13:50.225Z,190.83
2018-12-04T12:16:16.376Z,213.97
2018-12-04T12:18:42.547Z,196.37
2018-12-04T12:21:08.734Z,179.57
2018-12-04T12:23:34.881Z,186.40
2018-12-04T12:26:01.037Z,172.17
2018-12-04T12:28:27.283Z,196.33
2018-12-04T12:30:53.452Z,200.87
2018-12-04T12:33:19.615Z,175.67
2018-12-04T12:35:45.801Z,208.63
2018-12-04T12:38:11.946Z,199.00
2018-12-04T12:40:38.191Z,198.83
2018-12-04T12:43:04.452Z,188.13
2018-12-04T12:45:30.601Z,213.37
2018-12-04T12:47:56.749Z,194.30
2018-12-04T12:50:22.962Z,225.13
2018-12-04T12:52:49.125Z,225.13
2018-12-04T12:55:15.306Z,198.40
2018-12-04T12:57:41.522Z,217.73
2018-12-04T13:00:08.665Z,198.67
2018-12-04T13:02:34.993Z,196.17
2018-12-04T13:05:01.258Z,191.27
2018-12-04T13:07:27.467Z,199.57
2018-12-04T13:09:53.650Z,193.27
2018-12-04T13:12:19.857Z,232.70
2018-12-04T13:14:46.019Z,213.00
2018-12-04T13:17:12.216Z,219.80
2018-12-04T13:19:38.406Z,210.87
2018-12-04T13:22:04.555Z,205.67
2018-12-04T13:24:30.719Z,220.27
2018-12-04T13:26:56.922Z,282.37
2018-12-04T13:29:23.078Z,197.77
2018-12-04T13:31:49.274Z,226.87
2018-12-04T13:34:15.477Z,192.57
2018-12-04T13:36:42.303Z,201.67
2018-12-04T13:39:08.915Z,228.47
2018-12-04T13:41:35.238Z,207.73
2018-12-04T13:44:01.419Z,213.53
2018-12-04T13:46:27.572Z,228.57
2018-12-04T13:48:53.758Z,207.03
2018-12-04T13:51:19.927Z,206.33
2018-12-04T13:53:46.142Z,209.03
2018-12-04T13:56:12.334Z,235.27
2018-12-04T13:58:38.494Z,234.03
2018-12-04T14:01:04.689Z,220.80
2018-12-04T14:03:30.913Z,270.30
2018-12-04T14:05:57.094Z,269.97
2018-12-04T14:08:23.277Z,242.93
2018-12-04T14:10:49.494Z,305.20
2018-12-04T14:13:15.683Z,362.07
2018-12-04T14:15:41.886Z,224.23
2018-12-04T14:18:08.131Z,244.73
2018-12-04T14:20:34.343Z,249.30
2018-12-04T14:23:00.513Z,300.80
2018-12-04T14:25:26.730Z,356.70
2018-12-04T14:27:52.890Z,268.63
2018-12-04T14:30:19.070Z,250.07
2018-12-04T14:32:45.384Z,284.53
2018-12-04T14:35:11.693Z,275.73
2018-12-04T14:37:37.890Z,240.07
2018-12-04T14:40:04.645Z,267.53
2018-12-04T14:42:30.833Z,256.77
2018-12-04T14:44:57.019Z,249.93
2018-12-04T14:47:23.213Z,235.43
2018-12-04T14:49:49.439Z,262.73
2018-12-04T14:52:15.666Z,369.47
2018-12-04T14:54:41.879Z,365.20
2018-12-04T14:57:08.068Z,341.00
2018-12-04T14:59:34.309Z,308.10
2018-12-04T15:02:00.538Z,308.80
2018-12-04T15:04:26.748Z,293.47
2018-12-04T15:06:53.038Z,276.83
2018-12-04T15:09:19.271Z,349.60
2018-12-04T15:11:45.709Z,299.37
2018-12-04T15:14:11.875Z,298.57
2018-12-04T15:16:38.078Z,324.97
2018-12-04T15:19:04.393Z,364.63
2018-12-04T15:21:30.599Z,334.17
2018-12-04T15:23:56.794Z,333.33
2018-12-04T15:26:22.941Z,417.03
2018-12-04T15:28:49.132Z,326.33
2018-12-04T15:31:15.313Z,259.87
2018-12-04T15:33:41.530Z,317.27
2018-12-04T15:36:07.794Z,263.40
2018-12-04T15:38:33.990Z,242.67
2018-12-04T15:41:09.410Z,176.03
2018-12-04T15:43:35.747Z,183.80
2018-12-04T15:46:01.940Z,237.03
2018-12-04T15:48:28.119Z,158.53
2018-12-04T15:50:59.860Z,159.27
2018-12-04T15:53:22.556Z,206.53
2018-12-04T15:55:48.945Z,371.37
2018-12-04T15:58:15.233Z,252.40
2018-12-04T16:00:41.538Z,249.93
2018-12-04T16:03:07.718Z,249.40
2018-12-04T16:05:33.959Z,230.33
2018-12-04T16:08:00.136Z,296.73
2018-12-04T16:10:26.296Z,171.00
2018-12-04T16:12:52.506Z,190.77
2018-12-04T16:15:18.702Z,264.57
2018-12-04T16:17:44.895Z,298.17
2018-12-04T16:20:11.137Z,377.37
2018-12-04T16:22:37.320Z,333.73
2018-12-04T16:25:05.090Z,404.73
2018-12-04T16:27:31.285Z,483.80
2018-12-04T16:29:57.482Z,421.70
2018-12-04T16:32:23.687Z,512.70
2018-12-04T16:34:49.874Z,467.73
2018-12-04T16:37:16.052Z,426.73
2018-12-04T16:39:42.218Z,543.63
2018-12-04T16:42:08.537Z,615.10
2018-12-04T16:44:34.705Z,503.03
2018-12-04T16:47:00.883Z,641.03
2018-12-04T16:49:27.101Z,634.30
2018-12-04T16:51:53.255Z,562.77
2018-12-04T16:54:19.422Z,724.43
2018-12-04T16:56:45.670Z,545.57
2018-12-04T16:59:11.876Z,533.93
2018-12-04T17:01:38.054Z,639.37
2018-12-04T17:04:04.253Z,776.37
2018-12-04T17:06:30.465Z,747.80
2018-12-04T17:08:56.642Z,699.90
2018-12-04T17:11:22.858Z,752.93
2018-12-04T17:13:49.025Z,652.63
2018-12-04T17:16:15.331Z,678.80
2018-12-04T17:18:41.535Z,606.13
2018-12-04T17:21:07.696Z,760.80
2018-12-04T17:23:33.918Z,917.07
2018-12-04T17:26:00.162Z,625.70
2018-12-04T17:28:26.307Z,782.40
2018-12-04T17:30:52.478Z,556.80
2018-12-04T17:33:18.694Z,570.67
2018-12-04T17:35:44.874Z,583.43
2018-12-04T17:38:11.057Z,631.97
2018-12-04T17:40:37.262Z,519.50
2018-12-04T17:43:03.481Z,501.10
2018-12-04T17:45:29.656Z,457.97
2018-12-04T17:50:20.894Z,537.72
2018-12-04T17:52:47.051Z,525.57
2018-12-04T17:55:13.221Z,469.93
2018-12-04T17:57:39.449Z,594.33
2018-12-04T18:00:07.542Z,419.57
2018-12-04T18:02:33.699Z,487.67
2018-12-04T18:04:59.913Z,770.77
2018-12-04T18:07:26.074Z,635.47
2018-12-04T18:09:52.294Z,595.93
2018-12-04T18:12:18.489Z,625.43
2018-12-04T18:14:44.694Z,1111.30
2018-12-04T18:17:10.857Z,860.63
2018-12-04T18:19:37.068Z,852.47
2018-12-04T18:22:03.298Z,633.43
2018-12-04T18:24:30.365Z,798.87
2018-12-04T18:26:56.586Z,650.60
2018-12-04T18:29:22.734Z,738.47
2018-12-04T18:31:48.919Z,992.77
2018-12-04T18:34:15.213Z,1061.13
2018-12-04T18:36:41.366Z,1030.77
2018-12-04T18:39:07.677Z,1095.50
2018-12-04T18:41:33.873Z,943.10
2018-12-04T18:44:00.583Z,865.73
2018-12-04T18:46:26.725Z,624.67
2018-12-04T18:48:53.037Z,1239.57
2018-12-04T18:51:19.194Z,728.33
2018-12-04T18:53:45.350Z,486.10
2018-12-04T18:56:11.550Z,539.90
2018-12-04T18:58:37.730Z,590.07
2018-12-04T19:01:03.931Z,669.43
2018-12-04T19:03:30.261Z,759.07
2018-12-04T19:05:56.438Z,799.50
2018-12-04T19:11:16.114Z,698.47
2018-12-04T19:13:42.522Z,943.57
2018-12-04T19:16:08.781Z,593.77
2018-12-04T19:18:34.934Z,575.63
2018-12-04T19:21:01.151Z,479.87
2018-12-04T19:23:27.321Z,463.37
2018-12-04T19:25:53.542Z,516.17
2018-12-04T19:28:19.745Z,498.70
2018-12-04T19:30:45.918Z,427.93
2018-12-04T19:33:12.074Z,440.93
2018-12-04T19:35:38.249Z,502.50
2018-12-04T19:38:04.412Z,464.13
2018-12-04T19:40:30.620Z,1094.30
2018-12-04T19:42:56.815Z,451.63
2018-12-04T19:45:22.978Z,432.57
2018-12-04T19:47:49.432Z,460.10
2018-12-04T19:50:15.621Z,517.87
2018-12-04T19:52:41.782Z,452.33
2018-12-04T19:55:07.983Z,702.60
2018-12-04T19:57:34.153Z,646.20
2018-12-04T20:00:00.340Z,579.47
2018-12-04T20:02:26.562Z,434.90
2018-12-04T20:04:53.169Z,518.27
2018-12-04T20:07:19.521Z,534.00
2018-12-04T20:09:45.814Z,574.63
2018-12-04T20:12:12.422Z,451.03
2018-12-04T20:14:38.597Z,918.07
2018-12-04T20:17:05.173Z,504.53
2018-12-04T20:19:31.442Z,455.53
2018-12-04T20:21:57.619Z,440.47
2018-12-04T20:24:23.790Z,502.27
2018-12-04T20:26:50.002Z,537.57
2018-12-04T20:29:16.177Z,430.73
2018-12-04T20:31:42.334Z,494.00
2018-12-04T20:34:08.542Z,495.73
2018-12-04T20:36:34.719Z,555.10
2018-12-04T20:39:01.240Z,447.43
2018-12-04T20:41:27.453Z,427.87
2018-12-04T20:43:53.617Z,378.73
2018-12-04T20:46:19.778Z,329.13
2018-12-04T20:48:45.982Z,370.50
2018-12-04T20:51:12.153Z,319.43
2018-12-04T20:53:38.317Z,359.17
2018-12-04T20:56:04.498Z,340.63
2018-12-04T20:58:30.647Z,344.57
2018-12-04T21:00:56.797Z,260.67
2018-12-04T21:03:23.019Z,277.60
2018-12-04T21:05:49.190Z,343.67
2018-12-04T21:08:15.362Z,262.47
2018-12-04T21:10:41.571Z,308.07
2018-12-04T21:13:14.285Z,340.23
2018-12-04T21:15:35.944Z,361.97
2018-12-04T21:18:02.137Z,482.80
2018-12-04T21:20:28.362Z,416.40
2018-12-04T21:22:54.630Z,408.70
2018-12-04T21:25:20.822Z,426.27
2018-12-04T21:27:53.073Z,409.53
2018-12-04T21:30:25.179Z,366.90
2018-12-04T21:32:57.225Z,404.77
2018-12-04T21:35:29.464Z,368.37
2018-12-04T21:41:10.638Z,327.23
2018-12-04T21:43:42.727Z,351.13
2018-12-04T21:46:15.081Z,330.43
2018-12-04T21:48:41.256Z,330.77
2018-12-04T21:51:07.453Z,358.37
2018-12-04T21:53:33.650Z,338.77
2018-12-04T21:55:59.807Z,275.03
2018-12-04T21:58:25.962Z,221.43
2018-12-04T22:00:52.157Z,161.23
2018-12-04T22:03:18.300Z,203.37
2018-12-04T22:05:44.473Z,243.80
2018-12-04T22:08:10.685Z,186.37
2018-12-04T22:10:36.851Z,229.33
2018-12-04T22:13:03.054Z,229.00
2018-12-04T22:15:29.273Z,261.60
2018-12-04T22:17:55.455Z,239.37
2018-12-04T22:20:21.605Z,232.33
2018-12-04T22:22:47.798Z,280.70
2018-12-04T22:25:13.949Z,307.37
2018-12-04T22:27:40.133Z,344.33
2018-12-04T22:30:07.690Z,287.13
2018-12-04T22:32:33.859Z,284.63
2018-12-04T22:35:00.037Z,293.63
2018-12-04T22:37:26.223Z,292.13
2018-12-04T22:39:52.390Z,259.00
2018-12-04T22:42:18.541Z,232.50
2018-12-04T22:44:44.753Z,227.20
2018-12-04T22:47:10.929Z,226.17
2018-12-04T22:49:37.102Z,871.93
2018-12-04T22:52:03.326Z,223.87
2018-12-04T22:54:29.498Z,250.73
2018-12-04T22:56:55.657Z,276.80
2018-12-04T22:59:21.840Z,257.87
2018-12-04T23:01:48.130Z,247.60
2018-12-04T23:04:14.288Z,262.37
2018-12-04T23:06:40.524Z,260.13
2018-12-04T23:09:07.736Z,244.63
2018-12-04T23:11:33.934Z,236.50
2018-12-04T23:14:00.117Z,253.93
2018-12-04T23:16:26.550Z,244.20
2018-12-04T23:18:52.845Z,262.63
2018-12-04T23:21:19.066Z,271.00
2018-12-04T23:23:45.258Z,232.47
2018-12-04T23:26:11.429Z,219.90
2018-12-04T23:28:37.622Z,171.77
2018-12-04T23:31:03.817Z,139.47
2018-12-04T23:33:29.986Z,113.03
2018-12-04T23:35:56.192Z,120.30
2018-12-04T23:38:22.362Z,106.90
2018-12-04T23:40:48.534Z,94.87
2018-12-04T23:43:14.717Z,98.83
2018-12-04T23:45:40.872Z,89.87
2018-12-04T23:48:07.036Z,82.13
2018-12-04T23:50:33.218Z,98.00
2018-12-04T23:52:59.458Z,91.27
2018-12-04T23:55:25.682Z,92.73
2018-12-04T23:57:51.864Z,79.80
